Alda, Nebraska
Current Conditions -  °F | °C
As of 6:53 AM on Wednesday 22 Oct 2014 (Local Time) from KGRI Reporting Station
Clear Clear  
Wind Chill: 57°   Ceiling: Unl
Heat Index: 57°   Visibility: 8mi
Dew Point: 53°   Wind: 14mph
Humidity: 87%   Direction: 170°S
Pressure: 30"   Gusts: NA
Location:  40.87°N, 98.47°W
Report Text: KGRI 221153Z 17012KT 8SM CLR 14/12 A3000 RMK AO2 SLP152 T01390117 10156 20139 53003
Loading
Personal Weather Stations






























Interactive Weather Map New forecast layout! Learn more

10-Day Weather Forecast

Advertisements
Track Severe Weather on mobile